Time;durP1;ratioP1;P1;durP2;ratioP2;P2;SDS_P1;SDS_P2;PMS_P1;PMS_P2;Temp;Humidity;BMP_temperature;BMP_pressure;BME280_temperature;BME280_humidity;BME280_pressure;Samples;Min_cycle;Max_cycle;Signal;HPM_P1;HPM_P2
2022/10/10 00:01:15;;;;;;;;;;;;;;;10.18;63.35;102099.28;5055069;28;19928;-50
2022/10/10 00:03:41;;;;;;;;;;;;;;;10.18;63.34;102104.56;5053161;28;20026;-50
2022/10/10 00:06:07;;;;;;;;;;;;;;;10.16;63.45;102101.94;5057002;28;19921;-51
2022/10/10 00:08:32;;;;;;;;;;;;;;;10.16;63.39;102101.09;5052530;28;19919;-51
2022/10/10 00:10:57;;;;;;;;;;;;;;;10.14;63.33;102089.78;5051621;28;20011;-51
2022/10/10 00:13:23;;;;;;;;;;;;;;;10.13;63.22;102082.78;5052680;28;20059;-51
2022/10/10 00:15:48;;;;;;;;;;;;;;;10.12;63.20;102089.84;5051968;28;19928;-53
2022/10/10 00:18:13;;;;;;;;;;;;;;;10.11;63.40;102085.50;5053124;28;19928;-50
2022/10/10 00:20:38;;;;;;;;;;;;;;;10.09;63.40;102087.31;5056367;28;19944;-51
2022/10/10 00:23:04;;;;;;;;;;;;;;;10.10;63.43;102082.88;5054034;28;20014;-50
2022/10/10 00:25:29;;;;;;;;;;;;;;;10.09;63.42;102083.81;5055278;28;20557;-51
2022/10/10 00:27:54;;;;;;;;;;;;;;;10.08;63.33;102080.31;5058469;28;19963;-49
2022/10/10 00:30:20;;;;;;;;;;;;;;;10.07;63.38;102083.88;5056493;28;19944;-52
2022/10/10 00:32:45;;;;;;;;;;;;;;;10.05;63.19;102068.16;5056079;28;19920;-50
2022/10/10 00:35:11;;;;;;;;;;;;;;;10.04;63.38;102074.31;5059316;28;20349;-51
2022/10/10 00:37:36;;;;;;;;;;;;;;;10.03;63.30;102077.84;5062999;28;20404;-50
2022/10/10 00:40:02;;;;;;;;;;;;;;;10.03;63.40;102071.72;5054382;28;19932;-51
2022/10/10 00:42:27;;;;;;;;;;;;;;;10.00;63.35;102066.56;5052734;28;20341;-54
2022/10/10 00:45:11;;;;;;;;;;;;;;;9.98;63.54;102058.75;5054633;28;20116;-52
2022/10/10 00:47:36;;;;;;;;;;;;;;;9.97;63.57;102057.03;5056666;28;19920;-53
2022/10/10 00:50:03;;;;;;;;;;;;;;;9.95;63.56;102050.94;5053628;28;19921;-50
2022/10/10 00:52:28;;;;;;;;;;;;;;;9.94;63.57;102051.84;5054838;28;19924;-50
2022/10/10 00:54:54;;;;;;;;;;;;;;;9.91;63.59;102036.19;5047223;28;19928;-50
2022/10/10 00:57:19;;;;;;;;;;;;;;;9.89;63.50;102038.03;5054003;28;20324;-51
2022/10/10 00:59:45;;;;;;;;;;;;;;;9.88;63.63;102042.41;5058546;28;19975;-50
2022/10/10 01:02:10;;;;;;;;;;;;;;;9.87;63.59;102034.59;5057514;28;21299;-51
2022/10/10 01:04:38;;;;;;;;;;;;;;;9.86;63.51;102035.50;5051100;28;19928;-50
2022/10/10 01:07:04;;;;;;;;;;;;;;;9.85;63.45;102033.78;5053045;28;19928;-50
2022/10/10 01:09:30;;;;;;;;;;;;;;;9.82;63.54;102016.34;5057726;28;20006;-51
2022/10/10 01:12:14;;;;;;;;;;;;;;;9.82;63.47;102021.59;5055680;28;19921;-50
2022/10/10 01:14:58;;;;;;;;;;;;;;;9.81;63.56;102016.38;5049921;28;19924;-50
2022/10/10 01:17:32;;;;;;;;;;;;;;;9.80;63.51;102015.53;5052635;28;21150;-50
2022/10/10 01:20:16;;;;;;;;;;;;;;;9.81;63.39;102013.75;5054876;28;20697;-52
2022/10/10 01:22:41;;;;;;;;;;;;;;;9.82;63.39;102012.84;5052086;28;20385;-50
2022/10/10 01:25:16;;;;;;;;;;;;;;;9.82;63.36;102007.59;5054363;28;19999;-51
2022/10/10 01:28:01;;;;;;;;;;;;;;;9.81;63.35;102001.50;5051848;28;19921;-51
2022/10/10 01:30:27;;;;;;;;;;;;;;;9.79;63.37;102007.69;5053215;28;20378;-51
2022/10/10 01:32:55;;;;;;;;;;;;;;;9.79;63.30;101999.81;5052028;28;20357;-50
2022/10/10 01:35:20;;;;;;;;;;;;;;;9.78;63.33;102004.22;5052599;28;19922;-51
2022/10/10 01:37:51;;;;;;;;;;;;;;;9.77;63.35;101992.81;5050447;28;19920;-53
2022/10/10 01:40:35;;;;;;;;;;;;;;;9.80;63.55;101997.13;5061104;28;20032;-50
2022/10/10 01:43:02;;;;;;;;;;;;;;;9.81;63.45;101993.59;5064562;28;19920;-50
2022/10/10 01:45:30;;;;;;;;;;;;;;;9.83;63.27;101988.28;5060932;28;20500;-53
2022/10/10 01:47:58;;;;;;;;;;;;;;;9.85;63.41;101994.34;5057677;28;20005;-51
2022/10/10 01:50:25;;;;;;;;;;;;;;;9.86;63.38;101985.56;5060521;28;19937;-51
2022/10/10 01:53:03;;;;;;;;;;;;;;;9.87;63.34;101982.00;5062217;28;19931;-52
2022/10/10 01:55:31;;;;;;;;;;;;;;;9.85;63.43;101975.94;5065717;28;19931;-50
2022/10/10 01:57:59;;;;;;;;;;;;;;;9.86;63.30;101985.56;5061787;28;19934;-50
2022/10/10 02:00:25;;;;;;;;;;;;;;;9.85;63.31;101976.78;5063683;28;19920;-51
2022/10/10 02:03:08;;;;;;;;;;;;;;;9.85;63.39;101974.16;5059104;28;20384;-50
2022/10/10 02:05:34;;;;;;;;;;;;;;;9.85;63.28;101966.28;5052865;28;20003;-49
2022/10/10 02:08:05;;;;;;;;;;;;;;;9.85;63.45;101961.00;5056867;28;20012;-50
2022/10/10 02:10:33;;;;;;;;;;;;;;;9.85;63.35;101962.78;5063455;28;20023;-49
2022/10/10 02:13:00;;;;;;;;;;;;;;;9.85;63.41;101957.53;5061020;28;19916;-50
2022/10/10 02:15:27;;;;;;;;;;;;;;;9.85;63.35;101965.44;5056754;28;20011;-49
2022/10/10 02:17:53;;;;;;;;;;;;;;;9.84;63.39;101961.91;5053824;28;20057;-50
2022/10/10 02:20:22;;;;;;;;;;;;;;;9.84;63.46;101961.91;5056329;28;19928;-50
2022/10/10 02:22:49;;;;;;;;;;;;;;;9.86;63.24;101954.84;5057743;28;19916;-50
2022/10/10 02:25:14;;;;;;;;;;;;;;;9.87;63.46;101960.97;5057303;28;19924;-50
2022/10/10 02:27:53;;;;;;;;;;;;;;;9.87;63.45;101956.56;5057638;28;19974;-50
2022/10/10 02:30:19;;;;;;;;;;;;;;;9.88;63.43;101952.19;5058881;28;19927;-51
2022/10/10 02:32:46;;;;;;;;;;;;;;;9.88;63.40;101944.28;5058786;28;19928;-50
2022/10/10 02:35:15;;;;;;;;;;;;;;;9.86;63.47;101944.31;5049775;28;19979;-51
2022/10/10 02:37:41;;;;;;;;;;;;;;;9.86;63.38;101939.06;5053175;28;20133;-52
2022/10/10 02:40:07;;;;;;;;;;;;;;;9.88;63.45;101939.03;5061113;28;20687;-51
2022/10/10 02:42:34;;;;;;;;;;;;;;;9.87;63.49;101935.53;5052458;28;19925;-53
2022/10/10 02:44:59;;;;;;;;;;;;;;;9.87;63.42;101938.16;5060746;28;19932;-52
2022/10/10 02:47:25;;;;;;;;;;;;;;;9.87;63.34;101934.69;5051629;28;19956;-51
2022/10/10 02:49:50;;;;;;;;;;;;;;;9.86;63.47;101927.72;5061489;28;20473;-52
2022/10/10 02:52:16;;;;;;;;;;;;;;;9.87;63.36;101929.44;5058860;28;20381;-51
2022/10/10 02:54:42;;;;;;;;;;;;;;;9.86;63.47;101923.28;5057830;28;19924;-52
2022/10/10 02:57:07;;;;;;;;;;;;;;;9.84;63.42;101924.28;5052591;28;19917;-50
2022/10/10 02:59:32;;;;;;;;;;;;;;;9.83;63.50;101922.56;5056514;28;19928;-49
2022/10/10 03:01:58;;;;;;;;;;;;;;;9.81;63.46;101909.47;5061465;28;19935;-50
2022/10/10 03:04:23;;;;;;;;;;;;;;;9.77;63.48;101919.22;5053623;28;19924;-50
2022/10/10 03:06:48;;;;;;;;;;;;;;;9.73;63.63;101909.75;5052513;28;19927;-50
2022/10/10 03:09:14;;;;;;;;;;;;;;;9.72;63.50;101912.41;5054087;28;19936;-52
2022/10/10 03:11:39;;;;;;;;;;;;;;;9.67;63.48;101907.31;5053654;28;19917;-50
2022/10/10 03:14:04;;;;;;;;;;;;;;;9.65;63.64;101898.63;5056099;28;19931;-50
2022/10/10 03:16:30;;;;;;;;;;;;;;;9.64;63.59;101899.53;5054949;28;20659;-50
2022/10/10 03:18:55;;;;;;;;;;;;;;;9.63;63.67;101899.63;5055560;28;20351;-51
2022/10/10 03:21:20;;;;;;;;;;;;;;;9.59;63.70;101889.19;5053760;28;20389;-51
2022/10/10 03:23:46;;;;;;;;;;;;;;;9.56;63.76;101888.47;5055355;28;19928;-51
2022/10/10 03:26:11;;;;;;;;;;;;;;;9.53;63.63;101884.16;5054701;28;20051;-51
2022/10/10 03:28:37;;;;;;;;;;;;;;;9.51;63.66;101882.50;5058962;28;19929;-51
2022/10/10 03:31:02;;;;;;;;;;;;;;;9.48;63.64;101875.59;5063966;28;19998;-51
2022/10/10 03:33:27;;;;;;;;;;;;;;;9.46;63.75;101872.16;5064621;28;19925;-51
2022/10/10 03:35:53;;;;;;;;;;;;;;;9.43;63.70;101864.38;5058046;28;19928;-49
2022/10/10 03:38:18;;;;;;;;;;;;;;;9.40;63.82;101862.72;5062553;28;19924;-50
2022/10/10 03:40:44;;;;;;;;;;;;;;;9.38;63.77;101869.78;5068819;28;20313;-51
2022/10/10 03:43:10;;;;;;;;;;;;;;;9.36;63.81;101860.25;5065721;28;19920;-50
2022/10/10 03:45:35;;;;;;;;;;;;;;;9.32;63.84;101856.88;5068989;28;19956;-51
2022/10/10 03:48:01;;;;;;;;;;;;;;;9.31;63.74;101857.78;5066911;28;19928;-51
2022/10/10 03:50:26;;;;;;;;;;;;;;;9.32;63.86;101856.03;5063830;28;19946;-51
2022/10/10 03:52:52;;;;;;;;;;;;;;;9.30;63.80;101853.47;5061911;28;19931;-51
2022/10/10 03:55:17;;;;;;;;;;;;;;;9.29;63.67;101849.97;5064211;28;19923;-53
2022/10/10 03:57:42;;;;;;;;;;;;;;;9.27;63.63;101850.94;5063847;28;20327;-50
2022/10/10 04:00:08;;;;;;;;;;;;;;;9.24;63.78;101853.66;5068066;28;19939;-51
2022/10/10 04:02:33;;;;;;;;;;;;;;;9.23;63.71;101844.06;5070433;28;19924;-50
2022/10/10 04:04:59;;;;;;;;;;;;;;;9.23;63.94;101841.44;5064541;28;19928;-49
2022/10/10 04:07:24;;;;;;;;;;;;;;;9.24;63.87;101840.53;5071056;28;19929;-49
2022/10/10 04:09:49;;;;;;;;;;;;;;;9.23;63.80;101842.28;5070966;28;19924;-51
2022/10/10 04:12:15;;;;;;;;;;;;;;;9.22;63.87;101831.84;5067403;28;20634;-51
2022/10/10 04:14:40;;;;;;;;;;;;;;;9.23;63.69;101830.94;5071260;28;19924;-49
2022/10/10 04:17:05;;;;;;;;;;;;;;;9.22;63.64;101832.72;5073918;28;19920;-54
2022/10/10 04:19:31;;;;;;;;;;;;;;;9.22;63.87;101832.72;5073224;28;19955;-52
2022/10/10 04:21:56;;;;;;;;;;;;;;;9.22;63.69;101826.59;5065477;28;19942;-51
2022/10/10 04:24:21;;;;;;;;;;;;;;;9.21;63.75;101824.88;5067927;28;19929;-52
2022/10/10 04:26:47;;;;;;;;;;;;;;;9.20;63.71;101828.41;5070444;28;19928;-51
2022/10/10 04:29:12;;;;;;;;;;;;;;;9.20;63.79;101823.16;5073301;28;19924;-53
2022/10/10 04:31:37;;;;;;;;;;;;;;;9.18;63.72;101819.72;5063829;28;19931;-51
2022/10/10 04:34:02;;;;;;;;;;;;;;;9.17;63.88;101813.63;5069730;28;19924;-51
2022/10/10 04:36:28;;;;;;;;;;;;;;;9.16;63.74;101814.53;5067094;28;19942;-50
2022/10/10 04:38:53;;;;;;;;;;;;;;;9.14;63.77;101813.72;5070281;28;20990;-51
2022/10/10 04:41:18;;;;;;;;;;;;;;;9.12;63.59;101810.28;5058924;28;20929;-50
2022/10/10 04:43:44;;;;;;;;;;;;;;;9.09;63.81;101800.75;5064641;28;19929;-51
2022/10/10 04:46:09;;;;;;;;;;;;;;;9.06;63.75;101803.47;5068600;28;19947;-51
2022/10/10 04:48:35;;;;;;;;;;;;;;;9.05;63.80;101793.03;5064935;28;19946;-53
2022/10/10 04:51:01;;;;;;;;;;;;;;;9.02;63.91;101793.16;5067190;28;19920;-51
2022/10/10 04:53:26;;;;;;;;;;;;;;;8.98;63.73;101792.41;5069267;28;20058;-51
2022/10/10 04:55:51;;;;;;;;;;;;;;;8.96;63.77;101783.72;5059492;28;19935;-51
2022/10/10 04:58:17;;;;;;;;;;;;;;;8.93;63.78;101789.06;5063734;28;19928;-51
2022/10/10 05:00:42;;;;;;;;;;;;;;;8.92;63.84;101787.34;5064653;28;19959;-50
2022/10/10 05:03:10;;;;;;;;;;;;;;;8.90;63.90;101786.53;5072972;28;19930;-50
2022/10/10 05:05:35;;;;;;;;;;;;;;;8.87;63.94;101779.63;5068967;28;19928;-51
2022/10/10 05:08:04;;;;;;;;;;;;;;;8.85;64.01;101782.28;5070744;28;19999;-50
2022/10/10 05:10:29;;;;;;;;;;;;;;;8.83;63.95;101776.25;5064587;28;19968;-52
2022/10/10 05:12:54;;;;;;;;;;;;;;;8.82;63.72;101776.28;5065125;28;20138;-49
2022/10/10 05:15:20;;;;;;;;;;;;;;;8.79;63.84;101772.03;5068222;28;19925;-50
2022/10/10 05:17:46;;;;;;;;;;;;;;;8.79;63.69;101772.03;5066902;28;19920;-50
2022/10/10 05:20:11;;;;;;;;;;;;;;;8.79;63.84;101768.53;5065277;28;19924;-50
2022/10/10 05:22:36;;;;;;;;;;;;;;;8.78;63.83;101765.06;5064535;28;19921;-50
2022/10/10 05:25:02;;;;;;;;;;;;;;;8.78;63.90;101764.19;5070168;28;19928;-50
2022/10/10 05:27:27;;;;;;;;;;;;;;;8.78;63.91;101769.44;5066422;28;19931;-50
2022/10/10 05:29:54;;;;;;;;;;;;;;;8.78;63.74;101770.31;5066307;28;19920;-53
2022/10/10 05:32:20;;;;;;;;;;;;;;;8.78;63.91;101767.69;5066088;28;20266;-50
2022/10/10 05:34:45;;;;;;;;;;;;;;;8.78;63.75;101759.81;5065438;28;19927;-50
2022/10/10 05:37:10;;;;;;;;;;;;;;;8.78;63.87;101759.81;5069239;28;19932;-53
2022/10/10 05:39:38;;;;;;;;;;;;;;;8.77;63.75;101755.47;5065309;28;19932;-49
2022/10/10 05:42:04;;;;;;;;;;;;;;;8.76;64.00;101756.38;5063629;28;19936;-52
2022/10/10 05:44:30;;;;;;;;;;;;;;;8.76;64.02;101753.75;5067274;28;19928;-50
2022/10/10 05:46:55;;;;;;;;;;;;;;;8.76;64.10;101743.25;5064148;28;20041;-50
2022/10/10 05:49:20;;;;;;;;;;;;;;;8.77;64.10;101747.59;5064249;28;19964;-51
2022/10/10 05:51:46;;;;;;;;;;;;;;;8.75;64.02;101741.53;5066336;28;19916;-49
2022/10/10 05:54:11;;;;;;;;;;;;;;;8.78;64.18;101740.56;5070694;28;19916;-50
2022/10/10 05:56:36;;;;;;;;;;;;;;;8.81;64.25;101738.72;5064826;28;20401;-51
2022/10/10 05:59:02;;;;;;;;;;;;;;;8.82;63.96;101735.19;5068828;28;20497;-50
2022/10/10 06:01:27;;;;;;;;;;;;;;;8.83;64.07;101730.78;5063949;28;20622;-50
2022/10/10 06:03:54;;;;;;;;;;;;;;;8.83;64.21;101721.16;5065072;28;19935;-50
2022/10/10 06:06:20;;;;;;;;;;;;;;;8.84;64.20;101716.75;5068093;28;19927;-50
2022/10/10 06:08:46;;;;;;;;;;;;;;;8.85;64.26;101724.56;5064117;28;19931;-50
2022/10/10 06:11:11;;;;;;;;;;;;;;;8.88;64.33;101722.72;5067255;28;19928;-52
2022/10/10 06:13:37;;;;;;;;;;;;;;;8.90;64.21;101721.78;5066725;28;19944;-50
2022/10/10 06:16:02;;;;;;;;;;;;;;;8.93;64.26;101715.56;5064531;28;19924;-49
2022/10/10 06:18:28;;;;;;;;;;;;;;;8.96;64.42;101715.47;5065857;28;20297;-50
2022/10/10 06:20:53;;;;;;;;;;;;;;;8.98;64.31;101703.97;5065972;28;19921;-49
2022/10/10 06:23:19;;;;;;;;;;;;;;;9.03;64.26;101716.94;5065809;28;21009;-50
2022/10/10 06:25:45;;;;;;;;;;;;;;;9.05;64.17;101709.03;5067603;28;20007;-50
2022/10/10 06:28:10;;;;;;;;;;;;;;;9.06;64.39;101701.09;5066249;28;19981;-50
2022/10/10 06:30:39;;;;;;;;;;;;;;;9.10;64.65;101712.31;5064259;28;20007;-50
2022/10/10 06:33:05;;;;;;;;;;;;;;;9.12;64.33;101706.13;5064206;28;20407;-49
2022/10/10 06:35:32;;;;;;;;;;;;;;;9.14;64.22;101698.19;5065246;28;20209;-50
2022/10/10 06:37:57;;;;;;;;;;;;;;;9.17;64.36;101698.06;5062262;28;20341;-50
2022/10/10 06:40:22;;;;;;;;;;;;;;;9.19;64.32;101691.00;5063132;28;20392;-50
2022/10/10 06:42:48;;;;;;;;;;;;;;;9.22;64.25;101687.41;5063695;28;19936;-50
2022/10/10 06:45:13;;;;;;;;;;;;;;;9.23;64.50;101686.50;5067454;28;20017;-50
2022/10/10 06:47:38;;;;;;;;;;;;;;;9.25;64.38;101679.41;5062110;28;19928;-50
2022/10/10 06:50:04;;;;;;;;;;;;;;;9.28;64.36;101684.56;5065425;28;19946;-50
2022/10/10 06:52:29;;;;;;;;;;;;;;;9.32;64.37;101680.88;5061025;28;19950;-52
2022/10/10 06:54:55;;;;;;;;;;;;;;;9.36;64.38;101682.50;5064760;28;19920;-50
2022/10/10 06:57:20;;;;;;;;;;;;;;;9.39;64.31;101677.13;5066044;28;19966;-50
2022/10/10 06:59:45;;;;;;;;;;;;;;;9.44;64.25;101674.31;5065824;28;19978;-49
2022/10/10 07:02:12;;;;;;;;;;;;;;;9.48;64.50;101670.66;5064052;28;20292;-50
2022/10/10 07:04:37;;;;;;;;;;;;;;;9.52;64.26;101668.78;5061020;28;19966;-50
2022/10/10 07:07:03;;;;;;;;;;;;;;;9.55;64.28;101673.91;5059218;28;19924;-52
2022/10/10 07:09:28;;;;;;;;;;;;;;;9.60;64.29;101674.59;5063546;28;19924;-49
2022/10/10 07:11:53;;;;;;;;;;;;;;;9.64;64.30;101670.06;5055348;28;19928;-49
2022/10/10 07:14:18;;;;;;;;;;;;;;;9.69;64.25;101668.97;5062994;28;19928;-50
2022/10/10 07:16:44;;;;;;;;;;;;;;;9.72;64.10;101674.13;5064285;28;19925;-51
2022/10/10 07:19:09;;;;;;;;;;;;;;;9.77;64.17;101672.16;5060297;28;19936;-51
2022/10/10 07:21:34;;;;;;;;;;;;;;;9.80;64.23;101667.69;5064777;28;19932;-49
2022/10/10 07:24:00;;;;;;;;;;;;;;;9.83;64.11;101664.94;5064020;28;19925;-50
2022/10/10 07:26:29;;;;;;;;;;;;;;;9.86;64.08;101667.44;5064298;28;19928;-50
2022/10/10 07:28:55;;;;;;;;;;;;;;;9.90;64.09;101662.00;5066810;28;20380;-50
2022/10/10 07:31:20;;;;;;;;;;;;;;;9.95;64.15;101656.56;5066189;28;19995;-49
2022/10/10 07:33:47;;;;;;;;;;;;;;;9.98;64.16;101658.22;5062169;28;19929;-52
2022/10/10 07:36:13;;;;;;;;;;;;;;;10.02;64.22;101657.16;5068190;28;19920;-50
2022/10/10 07:38:38;;;;;;;;;;;;;;;10.06;64.01;101650.88;5063055;28;19930;-50
2022/10/10 07:41:07;;;;;;;;;;;;;;;10.10;64.24;101651.59;5067663;28;19931;-50
2022/10/10 07:43:32;;;;;;;;;;;;;;;10.14;64.19;101654.03;5062971;28;19927;-53
2022/10/10 07:45:58;;;;;;;;;;;;;;;10.19;64.06;101651.22;5063394;28;19916;-49
2022/10/10 07:48:23;;;;;;;;;;;;;;;10.22;64.11;101643.19;5060027;28;20006;-49
2022/10/10 07:50:48;;;;;;;;;;;;;;;10.28;63.99;101650.84;5062468;28;19933;-52
2022/10/10 07:53:14;;;;;;;;;;;;;;;10.33;64.03;101650.63;5065917;28;19931;-53
2022/10/10 07:55:40;;;;;;;;;;;;;;;10.37;63.98;101650.44;5065520;28;19924;-50
2022/10/10 07:58:06;;;;;;;;;;;;;;;10.42;63.88;101645.03;5070155;28;20312;-50
2022/10/10 08:00:32;;;;;;;;;;;;;;;10.47;63.97;101635.13;5064907;28;19924;-50
2022/10/10 08:02:57;;;;;;;;;;;;;;;10.54;63.87;101637.53;5060383;28;20403;-50
2022/10/10 08:05:23;;;;;;;;;;;;;;;10.58;63.82;101637.31;5061460;28;19920;-50
2022/10/10 08:07:48;;;;;;;;;;;;;;;10.63;63.78;101626.59;5066063;28;19924;-49
2022/10/10 08:10:14;;;;;;;;;;;;;;;10.68;63.79;101628.09;5066069;28;19921;-50
2022/10/10 08:12:39;;;;;;;;;;;;;;;10.72;63.72;101622.69;5065775;28;19920;-50
2022/10/10 08:15:05;;;;;;;;;;;;;;;10.77;63.81;101616.31;5062766;28;19920;-53
2022/10/10 08:17:30;;;;;;;;;;;;;;;10.82;63.78;101616.09;5064940;28;20434;-50
2022/10/10 08:19:55;;;;;;;;;;;;;;;10.88;63.59;101612.34;5062029;28;20383;-50
2022/10/10 08:22:21;;;;;;;;;;;;;;;10.93;63.78;101611.22;5063525;28;20019;-51
2022/10/10 08:24:46;;;;;;;;;;;;;;;10.99;63.65;101604.81;5063431;28;19929;-50
2022/10/10 08:27:13;;;;;;;;;;;;;;;11.08;63.62;101603.53;5063735;28;20441;-51
2022/10/10 08:29:38;;;;;;;;;;;;;;;11.13;63.40;101596.25;5066116;28;19922;-50
2022/10/10 08:32:04;;;;;;;;;;;;;;;11.19;63.16;101592.50;5063095;28;20102;-50
2022/10/10 08:34:29;;;;;;;;;;;;;;;11.25;63.25;101595.72;5069060;28;19974;-49
2022/10/10 08:36:54;;;;;;;;;;;;;;;11.30;63.27;101592.84;5061838;28;20290;-51
2022/10/10 08:39:20;;;;;;;;;;;;;;;11.34;63.13;101591.78;5068825;28;19925;-52
2022/10/10 08:41:45;;;;;;;;;;;;;;;11.39;63.16;101581.03;5067266;28;20023;-51
2022/10/10 08:44:10;;;;;;;;;;;;;;;11.46;62.94;101586.84;5068615;28;19917;-52
2022/10/10 08:46:41;;;;;;;;;;;;;;;11.52;62.73;101592.69;5066477;28;19973;-50
2022/10/10 08:49:19;;;;;;;;;;;;;;;11.59;62.79;101577.41;5067419;28;20275;-50
2022/10/10 08:51:47;;;;;;;;;;;;;;;11.68;62.42;101565.56;5064245;28;20169;-50
2022/10/10 08:54:14;;;;;;;;;;;;;;;11.75;62.46;101566.97;5070668;28;19967;-50
2022/10/10 08:56:40;;;;;;;;;;;;;;;11.82;62.34;101567.50;5069355;28;19937;-51
2022/10/10 08:59:11;;;;;;;;;;;;;;;11.88;62.22;101562.78;5070431;28;19932;-50
2022/10/10 09:01:37;;;;;;;;;;;;;;;11.94;62.05;101551.09;5064505;28;20014;-51
2022/10/10 09:04:05;;;;;;;;;;;;;;;12.00;61.77;101560.50;5062863;28;19924;-50
2022/10/10 09:06:43;;;;;;;;;;;;;;;12.03;61.90;101557.69;5066857;28;19920;-53
2022/10/10 09:09:21;;;;;;;;;;;;;;;12.07;61.79;101559.25;5068724;28;19967;-51
2022/10/10 09:11:55;;;;;;;;;;;;;;;12.15;61.75;101550.94;5071074;28;20258;-50
2022/10/10 09:14:20;;;;;;;;;;;;;;;12.19;61.52;101545.41;5066408;28;20197;-50
2022/10/10 09:16:59;;;;;;;;;;;;;;;12.19;61.70;101534.88;5064475;28;19917;-50
2022/10/10 09:19:27;;;;;;;;;;;;;;;12.22;61.65;101538.28;5068787;28;19943;-51
2022/10/10 09:21:55;;;;;;;;;;;;;;;12.25;61.54;101540.78;5062021;28;20720;-50
2022/10/10 09:24:33;;;;;;;;;;;;;;;12.31;61.57;101548.38;5065186;28;19973;-50
2022/10/10 09:27:03;;;;;;;;;;;;;;;12.37;61.44;101548.03;5068618;28;19927;-50
2022/10/10 09:29:47;;;;;;;;;;;;;;;12.45;61.44;101551.16;5067583;28;19916;-50
2022/10/10 09:32:18;;;;;;;;;;;;;;;12.55;61.02;101540.94;5065930;28;19934;-50
2022/10/10 09:34:47;;;;;;;;;;;;;;;12.63;60.98;101538.75;5068069;28;19920;-50
2022/10/10 09:37:34;;;;;;;;;;;;;;;12.71;60.95;101534.81;5063131;28;20496;-51
2022/10/10 09:40:02;;;;;;;;;;;;;;;12.78;60.52;101530.94;5067254;28;19931;-51
2022/10/10 09:42:32;;;;;;;;;;;;;;;12.86;60.44;101530.50;5066506;28;19917;-53
2022/10/10 09:44:57;;;;;;;;;;;;;;;12.92;60.45;101533.66;5068740;28;20359;-54
2022/10/10 09:47:23;;;;;;;;;;;;;;;12.99;60.11;101539.47;5066132;28;19931;-50
2022/10/10 09:49:48;;;;;;;;;;;;;;;13.01;59.75;101527.03;5069770;28;20010;-52
2022/10/10 09:52:22;;;;;;;;;;;;;;;13.05;59.68;101523.28;5061227;28;19959;-53
2022/10/10 09:54:48;;;;;;;;;;;;;;;13.07;59.64;101528.47;5069806;28;19916;-51
2022/10/10 09:57:14;;;;;;;;;;;;;;;13.07;59.47;101531.97;5065679;28;19924;-50
2022/10/10 09:59:41;;;;;;;;;;;;;;;13.10;59.52;101520.38;5064249;28;19979;-52
2022/10/10 10:02:17;;;;;;;;;;;;;;;13.13;59.60;101520.22;5062756;28;19921;-50
2022/10/10 10:04:43;;;;;;;;;;;;;;;13.17;59.36;101520.88;5063531;28;19924;-50
2022/10/10 10:07:18;;;;;;;;;;;;;;;13.18;59.31;101517.31;5064506;28;20497;-52
2022/10/10 10:09:48;;;;;;;;;;;;;;;13.20;59.23;101515.44;5063334;28;19920;-50
2022/10/10 10:12:13;;;;;;;;;;;;;;;13.20;59.36;101505.69;5065287;28;19931;-50
2022/10/10 10:14:39;;;;;;;;;;;;;;;13.22;59.28;101506.47;5064286;28;19924;-51
2022/10/10 10:17:09;;;;;;;;;;;;;;;13.27;59.25;101500.91;5061970;28;20657;-52
2022/10/10 10:19:36;;;;;;;;;;;;;;;13.31;59.22;101497.16;5062937;28;19924;-51
2022/10/10 10:22:01;;;;;;;;;;;;;;;13.37;58.92;101488.88;5062481;28;19920;-50
2022/10/10 10:24:35;;;;;;;;;;;;;;;13.43;58.83;101495.66;5063464;28;19920;-50
2022/10/10 10:27:29;;;;;;;;;;;;;;;13.49;58.75;101499.72;5062446;28;20514;-50
2022/10/10 10:29:57;;;;;;;;;;;;;;;13.53;58.84;101495.97;5053021;28;19969;-51
2022/10/10 10:32:32;;;;;;;;;;;;;;;13.61;58.86;101487.59;5061049;28;20462;-53
2022/10/10 10:35:13;;;;;;;;;;;;;;;13.68;58.60;101488.91;5062842;28;19943;-50
2022/10/10 10:37:41;;;;;;;;;;;;;;;13.76;58.54;101480.53;5064047;28;19931;-51
2022/10/10 10:40:12;;;;;;;;;;;;;;;13.82;58.48;101481.00;5065283;28;19930;-50
2022/10/10 10:42:49;;;;;;;;;;;;;;;13.89;58.32;101481.50;5058474;28;19920;-51
2022/10/10 10:45:17;;;;;;;;;;;;;;;13.96;58.12;101477.53;5062280;28;19951;-50
2022/10/10 10:47:53;;;;;;;;;;;;;;;14.02;58.07;101481.59;5062242;28;20019;-50
2022/10/10 10:50:25;;;;;;;;;;;;;;;14.08;57.78;101477.75;5063751;28;20027;-51
2022/10/10 10:53:11;;;;;;;;;;;;;;;14.12;57.58;101468.66;5062786;28;19913;-50
2022/10/10 10:55:47;;;;;;;;;;;;;;;14.17;57.67;101469.22;5062603;28;19920;-50
2022/10/10 10:58:21;;;;;;;;;;;;;;;14.20;57.59;101469.03;5064026;28;19912;-50
2022/10/10 11:00:53;;;;;;;;;;;;;;;14.26;57.58;101468.66;5063917;28;19924;-53
2022/10/10 11:03:18;;;;;;;;;;;;;;;14.30;57.42;101462.22;5060286;28;19943;-50
2022/10/10 11:05:51;;;;;;;;;;;;;;;14.36;57.27;101457.50;5062583;28;20456;-53
2022/10/10 11:08:19;;;;;;;;;;;;;;;14.40;57.36;101454.56;5061402;28;20514;-51
2022/10/10 11:10:57;;;;;;;;;;;;;;;14.44;57.27;101449.94;5061345;28;19924;-50
2022/10/10 11:13:25;;;;;;;;;;;;;;;14.47;57.13;101445.31;5064382;28;19939;-50
2022/10/10 11:15:54;;;;;;;;;;;;;;;14.50;57.07;101449.53;5059250;28;19931;-50
2022/10/10 11:18:56;;;;;;;;;;;;;;;14.53;57.12;101446.72;5063079;28;19968;-52
2022/10/10 11:21:24;;;;;;;;;;;;;;;14.59;56.99;101437.53;4975857;28;19926;-52
2022/10/10 11:23:54;;;;;;;;;;;;;;;14.67;56.90;101434.38;5044031;28;19939;-50
2022/10/10 11:26:20;;;;;;;;;;;;;;;14.70;56.90;101434.22;5061548;28;19927;-50
2022/10/10 11:28:59;;;;;;;;;;;;;;;14.75;56.66;101437.41;5063011;28;19924;-52
2022/10/10 11:31:30;;;;;;;;;;;;;;;14.79;56.58;101438.91;5063729;28;19923;-50
2022/10/10 11:34:07;;;;;;;;;;;;;;;14.80;56.60;101440.63;5063636;28;20323;-50
2022/10/10 11:36:36;;;;;;;;;;;;;;;14.81;56.72;101436.19;5060148;28;19936;-52
2022/10/10 11:39:03;;;;;;;;;;;;;;;14.82;56.65;101427.28;5062383;28;19916;-50
2022/10/10 11:41:36;;;;;;;;;;;;;;;14.84;56.71;101434.19;5060970;28;19951;-51
2022/10/10 11:44:11;;;;;;;;;;;;;;;14.86;56.68;101424.34;5061925;28;19925;-50
2022/10/10 11:46:48;;;;;;;;;;;;;;;14.94;56.53;101429.97;5061615;28;20015;-50
2022/10/10 11:49:23;;;;;;;;;;;;;;;14.99;56.39;101426.19;5063318;28;20469;-52
2022/10/10 11:51:54;;;;;;;;;;;;;;;15.03;56.38;101417.09;5064326;28;19920;-51
2022/10/10 11:54:22;;;;;;;;;;;;;;;15.07;56.42;101423.84;5059487;28;20365;-53
2022/10/10 11:56:49;;;;;;;;;;;;;;;15.12;56.34;101421.75;5059364;28;19966;-52
2022/10/10 11:59:35;;;;;;;;;;;;;;;15.16;56.19;101420.63;5063019;28;19924;-52
2022/10/10 12:02:04;;;;;;;;;;;;;;;15.19;56.19;101419.56;5059414;28;19924;-55
2022/10/10 12:04:34;;;;;;;;;;;;;;;15.21;55.97;101413.19;5066085;28;20429;-50
2022/10/10 12:07:11;;;;;;;;;;;;;;;15.25;56.00;101419.16;5066544;28;20417;-51
2022/10/10 12:09:40;;;;;;;;;;;;;;;15.28;55.95;101412.78;5067358;28;20247;-50
2022/10/10 12:12:14;;;;;;;;;;;;;;;15.31;55.90;101412.59;5064709;28;19964;-50
2022/10/10 12:14:42;;;;;;;;;;;;;;;15.34;55.83;101407.09;5059488;28;19920;-50
2022/10/10 12:17:17;;;;;;;;;;;;;;;15.38;55.60;101393.50;5073877;28;19921;-50
2022/10/10 12:19:45;;;;;;;;;;;;;;;15.44;55.63;101389.59;5068614;28;19916;-51
2022/10/10 12:22:20;;;;;;;;;;;;;;;15.47;55.48;101386.75;5067714;28;19920;-50
2022/10/10 12:25:04;;;;;;;;;;;;;;;15.51;55.56;101376.75;5068207;28;19924;-50
2022/10/10 12:27:42;;;;;;;;;;;;;;;15.59;55.48;101378.88;5065936;28;19936;-50
2022/10/10 12:30:07;;;;;;;;;;;;;;;15.62;55.49;101371.56;5067179;28;19916;-50
2022/10/10 12:32:37;;;;;;;;;;;;;;;15.66;55.27;101382.78;5068836;28;19920;-52
2022/10/10 12:35:22;;;;;;;;;;;;;;;15.67;55.36;101377.41;5069454;28;19925;-52
2022/10/10 12:38:07;;;;;;;;;;;;;;;15.70;55.45;101376.31;5065711;28;19931;-50
2022/10/10 12:40:32;;;;;;;;;;;;;;;15.75;55.19;101373.34;5068697;28;19924;-50
2022/10/10 12:42:59;;;;;;;;;;;;;;;15.78;55.33;101363.41;5065571;28;19924;-50
2022/10/10 12:45:27;;;;;;;;;;;;;;;15.81;55.32;101359.66;5064313;28;19924;-51
2022/10/10 12:47:53;;;;;;;;;;;;;;;15.82;55.31;101367.50;5062583;28;19928;-50